Overview Statistics Trail Chart Weather Telemetry Raw packets
 

This is the latest recevied weather packets stored in our database for station/object WD7OO. If no packets are shown the sender has not sent any weather packets the latest 10 day(s).

<< 91 92 93 94 95 96 97 >>
Time Temp. Humidity Pressure Rain* Wind** Luminosity Snow
1787951968 24.44° C 69% 1021.3 hPa 0 mm - 130 W/m² -
1787951663 25° C 68% 1021.2 hPa 0 mm - 97 W/m² -
1787951359 25.56° C 69% 1021.2 hPa 0 mm - 103 W/m² -
1787951054 26.11° C 64% 1021.3 hPa 0 mm - 119 W/m² -
1787950749 26.67° C 61% 1021.3 hPa 0 mm - 212 W/m² -
1787950445 27.22° C 56% 1021.2 hPa 0 mm - 123 W/m² -
1787950142 27.78° C 53% 1021.2 hPa 0 mm - 301 W/m² -
1787949837 28.33° C 51% 1021 hPa 0 mm - 489 W/m² -
1787949537 28.89° C 49% 1020.9 hPa 0 mm - 348 W/m² -
1787949232 29.44° C 46% 1021.2 hPa 0 mm - 527 W/m² -
1787948927 28.89° C 50% 1021.2 hPa 0 mm - 555 W/m² -
1787948623 28.33° C 48% 1021.2 hPa 0 mm - 528 W/m² -
1787948318 28.33° C 48% 1021.2 hPa 0 mm - 484 W/m² -
1787948018 28.33° C 52% 1021.2 hPa 0 mm - 530 W/m² -
1787947720 27.22° C 54% 1021 hPa 0 mm - 606 W/m² -
1787947417 26.11° C 62% 1021.4 hPa 0 mm - 626 W/m² -
1787947116 25.56° C 66% 1021.3 hPa 0 mm - 192 W/m² -
1787946810 25.56° C 63% 1021.3 hPa 0 mm - 140 W/m² -
1787946508 25.56° C 64% 1021.4 hPa 0 mm - 145 W/m² -
1787946204 26.67° C 64% 1021.3 hPa 0 mm - 212 W/m² -
1787945903 26.67° C 60% 1021.4 hPa 0 mm - 199 W/m² -
1787945599 26.67° C 61% 1021.5 hPa 0 mm - 551 W/m² -
1787945298 26.67° C 58% 1021.5 hPa 0 mm - 292 W/m² -
1787944993 26.67° C 60% 1021.5 hPa 0 mm - 619 W/m² -
1787944691 25.56° C 66% 1021.6 hPa 0 mm - 670 W/m² -

* Rain latest hour (hover to see other rain measurements)
** Current wind speed in m/s (hover to see current wind gust speed)